Time;durP1;ratioP1;P1;durP2;ratioP2;P2;SDS_P1;SDS_P2;PMS_P1;PMS_P2;Temp;Humidity;BMP_temperature;BMP_pressure;BME280_temperature;BME280_humidity;BME280_pressure;Samples;Min_cycle;Max_cycle;Signal;HPM_P1;HPM_P2
2023/10/04 00:00:18;;;;;;;14.73;7.80;;;;;;;;;;5094091;28;20028;-62
2023/10/04 00:02:45;;;;;;;11.32;6.60;;;;;;;;;;5094185;28;20028;-63
2023/10/04 00:05:14;;;;;;;11.30;6.60;;;;;;;;;;5094333;28;20035;-63
2023/10/04 00:07:41;;;;;;;12.23;7.20;;;;;;;;;;5094439;28;20043;-63
2023/10/04 00:10:08;;;;;;;11.38;7.00;;;;;;;;;;5093503;28;20505;-63
2023/10/04 00:12:34;;;;;;;12.07;7.95;;;;;;;;;;5093681;28;20146;-63
2023/10/04 00:15:00;;;;;;;11.68;6.90;;;;;;;;;;5093629;28;20065;-63
2023/10/04 00:17:25;;;;;;;10.50;6.20;;;;;;;;;;5093603;28;20114;-64
2023/10/04 00:19:56;;;;;;;10.80;6.30;;;;;;;;;;5075059;28;20032;-62
2023/10/04 00:22:23;;;;;;;11.20;6.55;;;;;;;;;;5075309;28;20020;-63
2023/10/04 00:24:51;;;;;;;11.98;6.95;;;;;;;;;;5075413;28;20024;-63
2023/10/04 00:27:17;;;;;;;;;;;;;;;;;;5075394;28;20111;-63
2023/10/04 00:29:44;;;;;;;11.07;6.50;;;;;;;;;;5093130;28;19950;-63
2023/10/04 00:32:10;;;;;;;11.30;6.70;;;;;;;;;;5093048;28;20020;-63
2023/10/04 00:34:39;;;;;;;10.63;6.30;;;;;;;;;;5093338;28;20059;-63
2023/10/04 00:37:07;;;;;;;11.05;6.50;;;;;;;;;;5093487;28;20024;-63
2023/10/04 00:39:34;;;;;;;12.75;7.85;;;;;;;;;;5093271;28;20110;-63
2023/10/04 00:42:00;;;;;;;11.20;6.70;;;;;;;;;;5092812;28;20028;-63
2023/10/04 00:44:26;;;;;;;10.57;6.20;;;;;;;;;;5093003;28;20024;-63
2023/10/04 00:46:53;;;;;;;10.90;6.40;;;;;;;;;;5093012;28;20077;-63
2023/10/04 00:49:19;;;;;;;10.88;6.35;;;;;;;;;;5092712;28;20020;-63
2023/10/04 00:51:46;;;;;;;10.45;6.15;;;;;;;;;;5092786;28;20024;-63
2023/10/04 00:54:12;;;;;;;10.95;6.38;;;;;;;;;;5091999;28;20040;-63
2023/10/04 00:56:38;;;;;;;10.05;5.95;;;;;;;;;;5074573;28;20024;-63
2023/10/04 00:59:05;;;;;;;10.80;6.40;;;;;;;;;;5092737;28;20043;-63
2023/10/04 01:01:31;;;;;;;10.80;6.35;;;;;;;;;;5092380;28;20032;-63
2023/10/04 01:04:01;;;;;;;12.52;7.45;;;;;;;;;;5092670;28;20035;-63
2023/10/04 01:06:27;;;;;;;11.60;6.80;;;;;;;;;;5092405;28;20024;-63
2023/10/04 01:08:55;;;;;;;10.50;6.25;;;;;;;;;;5092143;28;20081;-63
2023/10/04 01:11:22;;;;;;;10.60;6.30;;;;;;;;;;5092134;28;20107;-63
2023/10/04 01:13:48;;;;;;;11.93;6.65;;;;;;;;;;5074199;28;20038;-63
2023/10/04 01:16:15;;;;;;;12.02;7.35;;;;;;;;;;5092361;28;20028;-63
2023/10/04 01:18:44;;;;;;;13.70;7.60;;;;;;;;;;5092296;28;20036;-63
2023/10/04 01:21:10;;;;;;;10.75;6.30;;;;;;;;;;5092122;28;20032;-63
2023/10/04 01:23:39;;;;;;;10.48;6.15;;;;;;;;;;5092177;28;20028;-63
2023/10/04 01:26:05;;;;;;;10.40;6.13;;;;;;;;;;5092156;28;20031;-63
2023/10/04 01:28:31;;;;;;;10.40;6.10;;;;;;;;;;5092086;28;20031;-64
2023/10/04 01:30:59;;;;;;;11.85;7.30;;;;;;;;;;5091855;28;20027;-63
2023/10/04 01:33:25;;;;;;;12.10;6.68;;;;;;;;;;5092036;28;20024;-63
2023/10/04 01:35:53;;;;;;;10.38;6.10;;;;;;;;;;5091858;28;20077;-63
2023/10/04 01:38:27;;;;;;;10.70;6.50;;;;;;;;;;5091978;28;20043;-63
2023/10/04 01:40:54;;;;;;;11.32;6.95;;;;;;;;;;5073549;28;20752;-63
2023/10/04 01:43:21;;;;;;;10.73;6.25;;;;;;;;;;5091822;28;20165;-63
2023/10/04 01:45:52;;;;;;;10.90;6.60;;;;;;;;;;5073536;28;20031;-63
2023/10/04 01:48:19;;;;;;;11.00;6.57;;;;;;;;;;5073584;28;20022;-63
2023/10/04 01:50:48;;;;;;;10.77;6.32;;;;;;;;;;5073184;28;20032;-63
2023/10/04 01:53:15;;;;;;;11.55;7.07;;;;;;;;;;5091710;28;20458;-64
2023/10/04 01:55:41;;;;;;;10.90;6.57;;;;;;;;;;5091673;28;20020;-64
2023/10/04 01:58:08;;;;;;;10.63;6.22;;;;;;;;;;5073139;28;20028;-63
2023/10/04 02:00:35;;;;;;;10.18;6.00;;;;;;;;;;5091275;28;20443;-63
2023/10/04 02:03:01;;;;;;;10.57;6.40;;;;;;;;;;5091327;28;20085;-64
2023/10/04 02:06:01;;;;;;;11.30;6.65;;;;;;;;;;5090289;28;20090;-63
2023/10/04 02:08:20;;;;;;;9.98;5.82;;;;;;;;;;5087193;28;20087;-63
2023/10/04 02:10:46;;;;;;;10.43;6.18;;;;;;;;;;5090871;28;20441;-63
2023/10/04 02:13:15;;;;;;;13.05;7.93;;;;;;;;;;5091306;28;20020;-62
2023/10/04 02:15:42;;;;;;;10.10;5.97;;;;;;;;;;5091209;28;20024;-62
2023/10/04 02:18:08;;;;;;;10.00;5.90;;;;;;;;;;5091261;28;20077;-62
2023/10/04 02:20:34;;;;;;;10.25;6.00;;;;;;;;;;5072581;28;20534;-62
2023/10/04 02:23:02;;;;;;;9.73;5.72;;;;;;;;;;5072773;28;20039;-63
2023/10/04 02:25:29;;;;;;;12.48;7.18;;;;;;;;;;5090855;28;20099;-62
2023/10/04 02:28:09;;;;;;;10.55;6.32;;;;;;;;;;5090963;28;20108;-63
2023/10/04 02:30:35;;;;;;;10.90;6.50;;;;;;;;;;5090490;28;20099;-62
2023/10/04 02:33:08;;;;;;;10.25;6.00;;;;;;;;;;5090782;28;20108;-62
2023/10/04 02:35:39;;;;;;;10.80;6.40;;;;;;;;;;5072709;28;20378;-62
2023/10/04 02:38:16;;;;;;;12.98;7.68;;;;;;;;;;5090686;28;20370;-63
2023/10/04 02:40:43;;;;;;;10.80;6.93;;;;;;;;;;5090503;28;20039;-63
2023/10/04 02:43:09;;;;;;;10.68;6.20;;;;;;;;;;5072054;28;20028;-62
2023/10/04 02:45:36;;;;;;;11.77;6.85;;;;;;;;;;5090413;28;20047;-63
2023/10/04 02:48:09;;;;;;;10.60;6.20;;;;;;;;;;5090546;28;20071;-62
2023/10/04 02:50:39;;;;;;;10.43;6.13;;;;;;;;;;5090333;28;20035;-63
2023/10/04 02:53:06;;;;;;;10.85;6.35;;;;;;;;;;5090678;28;20501;-63
2023/10/04 02:55:32;;;;;;;10.60;6.40;;;;;;;;;;5072319;28;20115;-62
2023/10/04 02:57:59;;;;;;;10.52;6.20;;;;;;;;;;5090552;28;20432;-62
2023/10/04 03:00:26;;;;;;;10.45;6.25;;;;;;;;;;5090232;28;20067;-62
2023/10/04 03:02:53;;;;;;;11.05;6.60;;;;;;;;;;5091418;28;20091;-63
2023/10/04 03:05:19;;;;;;;10.77;6.63;;;;;;;;;;5090299;28;20039;-63
2023/10/04 03:07:47;;;;;;;11.20;7.07;;;;;;;;;;5090101;28;20389;-64
2023/10/04 03:10:14;;;;;;;12.48;7.25;;;;;;;;;;5071625;28;20400;-64
2023/10/04 03:12:41;;;;;;;10.48;6.20;;;;;;;;;;5090217;28;20108;-63
2023/10/04 03:15:07;;;;;;;10.45;6.15;;;;;;;;;;5072003;28;20397;-64
2023/10/04 03:17:33;;;;;;;10.77;6.30;;;;;;;;;;5089925;28;20483;-63
2023/10/04 03:20:04;;;;;;;10.68;6.30;;;;;;;;;;5089984;28;20039;-63
2023/10/04 03:22:30;;;;;;;10.90;6.40;;;;;;;;;;5090360;28;20058;-63
2023/10/04 03:24:56;;;;;;;11.70;7.10;;;;;;;;;;5090365;28;20028;-63
2023/10/04 03:27:24;;;;;;;10.70;6.28;;;;;;;;;;5090032;28;20032;-63
2023/10/04 03:29:57;;;;;;;11.45;6.95;;;;;;;;;;5090194;28;20020;-63
2023/10/04 03:32:23;;;;;;;10.73;6.30;;;;;;;;;;5072015;28;20035;-63
2023/10/04 03:34:49;;;;;;;10.80;6.32;;;;;;;;;;5089889;28;20482;-63
2023/10/04 03:37:22;;;;;;;10.80;6.30;;;;;;;;;;5072035;28;20045;-63
2023/10/04 03:39:54;;;;;;;11.38;6.70;;;;;;;;;;5089860;28;20020;-63
2023/10/04 03:42:20;;;;;;;10.30;6.00;;;;;;;;;;5090046;28;20385;-63
2023/10/04 03:44:47;;;;;;;10.57;6.22;;;;;;;;;;5090345;28;20106;-65
2023/10/04 03:47:14;;;;;;;12.07;7.85;;;;;;;;;;5089838;28;20028;-63
2023/10/04 03:49:40;;;;;;;11.15;6.70;;;;;;;;;;5089793;28;20047;-63
2023/10/04 03:52:06;;;;;;;11.10;6.53;;;;;;;;;;5071767;28;20051;-64
2023/10/04 03:54:33;;;;;;;10.70;6.30;;;;;;;;;;5089720;28;20095;-63
2023/10/04 03:57:06;;;;;;;11.52;6.85;;;;;;;;;;5071957;28;20028;-63
2023/10/04 03:59:32;;;;;;;20.75;7.22;;;;;;;;;;5089953;28;20032;-64
2023/10/04 04:01:57;;;;;;;11.60;6.80;;;;;;;;;;5089846;28;20035;-64
2023/10/04 04:04:23;;;;;;;12.10;7.10;;;;;;;;;;5089791;28;20028;-63
2023/10/04 04:06:49;;;;;;;12.00;7.00;;;;;;;;;;5090186;28;20155;-64
2023/10/04 04:09:15;;;;;;;11.90;6.97;;;;;;;;;;5071386;28;20409;-64
2023/10/04 04:11:41;;;;;;;17.20;8.40;;;;;;;;;;5089658;28;20016;-64
2023/10/04 04:14:08;;;;;;;11.70;7.00;;;;;;;;;;5071643;28;20060;-65
2023/10/04 04:16:34;;;;;;;18.63;8.65;;;;;;;;;;5071505;28;20073;-63
2023/10/04 04:19:01;;;;;;;11.90;7.20;;;;;;;;;;5089590;28;20102;-63
2023/10/04 04:21:29;;;;;;;11.68;6.80;;;;;;;;;;5089547;28;20100;-64
2023/10/04 04:23:56;;;;;;;12.80;8.00;;;;;;;;;;5089576;28;20016;-63
2023/10/04 04:26:24;;;;;;;12.45;7.20;;;;;;;;;;5089503;28;20030;-63
2023/10/04 04:28:51;;;;;;;11.65;6.80;;;;;;;;;;5091456;28;20055;-64
2023/10/04 04:31:20;;;;;;;17.58;9.30;;;;;;;;;;5074569;28;20031;-62
2023/10/04 04:33:46;;;;;;;11.73;6.90;;;;;;;;;;5093280;28;20016;-63
2023/10/04 04:36:25;;;;;;;11.80;7.00;;;;;;;;;;5093196;28;20044;-63
2023/10/04 04:38:52;;;;;;;11.05;6.47;;;;;;;;;;5092931;28;20028;-63
2023/10/04 04:41:24;;;;;;;11.93;7.35;;;;;;;;;;5092899;28;20024;-63
2023/10/04 04:43:50;;;;;;;11.98;7.00;;;;;;;;;;5093363;28;20036;-64
2023/10/04 04:46:18;;;;;;;11.63;6.80;;;;;;;;;;5092947;28;20040;-63
2023/10/04 04:48:46;;;;;;;11.95;6.90;;;;;;;;;;5092807;28;20027;-64
2023/10/04 04:51:12;;;;;;;11.75;6.78;;;;;;;;;;5092459;28;20028;-63
2023/10/04 04:53:41;;;;;;;12.43;7.55;;;;;;;;;;5092254;28;20062;-65
2023/10/04 04:56:14;;;;;;;11.75;6.85;;;;;;;;;;5092781;28;20047;-66
2023/10/04 04:58:44;;;;;;;14.68;8.18;;;;;;;;;;5092731;28;20031;-63
2023/10/04 05:01:13;;;;;;;14.07;7.80;;;;;;;;;;5092802;28;20393;-63
2023/10/04 05:03:45;;;;;;;11.88;7.00;;;;;;;;;;5092648;28;20035;-63
2023/10/04 05:06:20;;;;;;;12.00;7.00;;;;;;;;;;5092633;28;20024;-63
2023/10/04 05:08:46;;;;;;;11.73;6.80;;;;;;;;;;5092231;28;20093;-63
2023/10/04 05:11:12;;;;;;;11.60;6.80;;;;;;;;;;5074757;28;20078;-63
2023/10/04 05:13:39;;;;;;;11.77;7.00;;;;;;;;;;5092347;28;20020;-63
2023/10/04 05:16:05;;;;;;;15.93;8.45;;;;;;;;;;5092252;28;20124;-63
2023/10/04 05:18:32;;;;;;;11.88;6.90;;;;;;;;;;5092072;28;20499;-63
2023/10/04 05:21:00;;;;;;;12.10;7.00;;;;;;;;;;5092272;28;20494;-63
2023/10/04 05:23:26;;;;;;;11.75;6.95;;;;;;;;;;5066720;28;20026;-63
2023/10/04 05:25:53;;;;;;;11.68;6.80;;;;;;;;;;5067558;28;20120;-63
2023/10/04 05:28:19;;;;;;;11.73;6.80;;;;;;;;;;5073638;28;20465;-64
2023/10/04 05:30:46;;;;;;;12.07;7.05;;;;;;;;;;5090995;28;20024;-62
2023/10/04 05:33:13;;;;;;;12.23;7.15;;;;;;;;;;5053700;28;20179;-63
2023/10/04 05:35:40;;;;;;;12.25;7.25;;;;;;;;;;5071527;28;20021;-63
2023/10/04 05:38:07;;;;;;;11.43;6.70;;;;;;;;;;5071602;28;20058;-66
2023/10/04 05:40:34;;;;;;;12.20;7.20;;;;;;;;;;5082096;28;20044;-64
2023/10/04 05:43:00;;;;;;;12.45;7.22;;;;;;;;;;5091692;28;20524;-63
2023/10/04 05:45:26;;;;;;;11.85;6.85;;;;;;;;;;5091548;28;20420;-63
2023/10/04 05:47:53;;;;;;;12.32;7.10;;;;;;;;;;5091346;28;20028;-62
2023/10/04 05:50:22;;;;;;;14.25;8.13;;;;;;;;;;5073066;28;20031;-63
2023/10/04 05:52:49;;;;;;;11.85;6.90;;;;;;;;;;5073483;28;20074;-62
2023/10/04 05:55:16;;;;;;;12.10;7.30;;;;;;;;;;5091607;28;20416;-63
2023/10/04 05:57:43;;;;;;;11.65;6.93;;;;;;;;;;5079604;28;20474;-63
2023/10/04 06:03:01;;;;;;;21.95;9.10;;;;;;;;;;5071153;28;20088;-63
2023/10/04 06:05:27;;;;;;;12.07;7.07;;;;;;;;;;5071066;28;20061;-63
2023/10/04 06:07:56;;;;;;;12.00;7.00;;;;;;;;;;5071161;28;20044;-63
2023/10/04 06:10:26;;;;;;;11.77;6.82;;;;;;;;;;5070547;28;20024;-63
2023/10/04 06:12:56;;;;;;;14.40;8.68;;;;;;;;;;5071011;28;20078;-63
2023/10/04 06:15:24;;;;;;;14.82;8.48;;;;;;;;;;5070769;28;20016;-63
2023/10/04 06:17:51;;;;;;;12.00;6.95;;;;;;;;;;5070543;28;20538;-63
2023/10/04 06:20:24;;;;;;;12.40;7.63;;;;;;;;;;5070476;28;20115;-63
2023/10/04 06:22:51;;;;;;;14.23;7.43;;;;;;;;;;5070574;28;20390;-63
2023/10/04 06:25:18;;;;;;;12.07;7.20;;;;;;;;;;5083778;28;20031;-63
2023/10/04 06:27:44;;;;;;;12.23;7.28;;;;;;;;;;5090808;28;20486;-63
2023/10/04 06:30:12;;;;;;;12.32;7.22;;;;;;;;;;5090330;28;20074;-63
2023/10/04 06:32:38;;;;;;;12.82;7.63;;;;;;;;;;5090780;28;20020;-63
2023/10/04 06:35:06;;;;;;;13.25;7.72;;;;;;;;;;5090889;28;20024;-63
2023/10/04 06:37:32;;;;;;;12.93;7.80;;;;;;;;;;5090571;28;20024;-65
2023/10/04 06:39:58;;;;;;;12.95;7.47;;;;;;;;;;5090565;28;20035;-63
2023/10/04 06:42:24;;;;;;;13.10;8.45;;;;;;;;;;5089986;28;20020;-63
2023/10/04 06:44:50;;;;;;;12.10;7.10;;;;;;;;;;5090390;28;20077;-62
2023/10/04 06:47:17;;;;;;;12.98;7.47;;;;;;;;;;5090341;28;20027;-63
2023/10/04 06:49:43;;;;;;;14.93;9.20;;;;;;;;;;5089887;28;20023;-63
2023/10/04 06:52:09;;;;;;;11.77;7.03;;;;;;;;;;5089171;28;20024;-61
2023/10/04 06:54:36;;;;;;;11.98;7.10;;;;;;;;;;5071894;28;20026;-63
2023/10/04 06:57:03;;;;;;;14.75;7.88;;;;;;;;;;5090238;28;20028;-64
2023/10/04 06:59:29;;;;;;;12.02;6.95;;;;;;;;;;5076089;28;20032;-63
2023/10/04 07:01:55;;;;;;;11.88;6.90;;;;;;;;;;5070177;28;20749;-64
2023/10/04 07:04:21;;;;;;;12.40;7.25;;;;;;;;;;5070221;28;20064;-63
2023/10/04 07:06:47;;;;;;;11.63;6.78;;;;;;;;;;5070066;28;20024;-63
2023/10/04 07:09:14;;;;;;;11.95;6.97;;;;;;;;;;5069943;28;20052;-61
2023/10/04 07:11:40;;;;;;;12.20;7.10;;;;;;;;;;5052173;28;20027;-63
2023/10/04 07:14:05;;;;;;;12.55;7.28;;;;;;;;;;5071681;28;20033;-63
2023/10/04 07:16:31;;;;;;;11.85;7.15;;;;;;;;;;5069915;28;20056;-58
2023/10/04 07:18:59;;;;;;;11.82;6.85;;;;;;;;;;5076705;28;20035;-57
2023/10/04 07:21:26;;;;;;;12.50;7.68;;;;;;;;;;5090071;28;20127;-59
2023/10/04 07:23:52;;;;;;;11.80;6.85;;;;;;;;;;5090261;28;20075;-52
2023/10/04 07:26:19;;;;;;;11.73;6.80;;;;;;;;;;5075494;28;20028;-54
2023/10/04 07:28:46;;;;;;;12.60;7.30;;;;;;;;;;5069856;28;20066;-51
2023/10/04 07:31:12;;;;;;;18.02;8.98;;;;;;;;;;5069665;28;20021;-55
2023/10/04 07:33:38;;;;;;;11.80;7.05;;;;;;;;;;5069729;28;20021;-55
2023/10/04 07:36:04;;;;;;;11.82;6.90;;;;;;;;;;5069838;28;20028;-55
2023/10/04 07:38:30;;;;;;;11.93;6.93;;;;;;;;;;5069682;28;20078;-55
2023/10/04 07:40:56;;;;;;;13.30;7.70;;;;;;;;;;5069740;28;20135;-49
2023/10/04 07:43:23;;;;;;;12.77;7.68;;;;;;;;;;5072123;28;20425;-51
2023/10/04 07:45:49;;;;;;;12.98;8.18;;;;;;;;;;5072402;28;20059;-50
2023/10/04 07:48:17;;;;;;;14.20;9.25;;;;;;;;;;5069822;28;20020;-57
2023/10/04 07:50:43;;;;;;;13.40;8.00;;;;;;;;;;5069554;28;20024;-53
2023/10/04 07:53:09;;;;;;;13.65;8.35;;;;;;;;;;5069777;28;20514;-55
2023/10/04 07:55:36;;;;;;;13.00;7.50;;;;;;;;;;5069486;28;20067;-52
2023/10/04 07:58:03;;;;;;;16.70;8.82;;;;;;;;;;5051578;28;20044;-64
2023/10/04 08:00:29;;;;;;;12.95;7.50;;;;;;;;;;5050806;28;20036;-51
2023/10/04 08:02:57;;;;;;;13.25;7.95;;;;;;;;;;5053498;28;20021;-56
2023/10/04 08:05:25;;;;;;;13.40;8.00;;;;;;;;;;5055213;28;20028;-51
2023/10/04 08:08:04;;;;;;;14.55;9.10;;;;;;;;;;5073076;28;20055;-55
2023/10/04 08:10:32;;;;;;;15.85;9.52;;;;;;;;;;5072685;28;20032;-57
2023/10/04 08:12:59;;;;;;;16.83;9.87;;;;;;;;;;5072928;28;20470;-60
2023/10/04 08:15:27;;;;;;;13.70;9.05;;;;;;;;;;5075655;28;20078;-63
2023/10/04 08:17:54;;;;;;;16.85;10.07;;;;;;;;;;5084396;28;20050;-63
2023/10/04 08:20:20;;;;;;;13.40;8.00;;;;;;;;;;5091691;28;20024;-58
2023/10/04 08:22:47;;;;;;;14.00;9.23;;;;;;;;;;5091784;28;20031;-61
2023/10/04 08:25:18;;;;;;;14.93;9.57;;;;;;;;;;5074422;28;20035;-58
2023/10/04 08:27:44;;;;;;;14.32;9.25;;;;;;;;;;5092750;28;20454;-61
2023/10/04 08:30:12;;;;;;;13.35;8.00;;;;;;;;;;5093042;28;20020;-61
2023/10/04 08:32:38;;;;;;;13.25;7.95;;;;;;;;;;5093017;28;20487;-61
2023/10/04 08:35:04;;;;;;;13.50;8.30;;;;;;;;;;5093329;28;20103;-60
2023/10/04 08:37:30;;;;;;;13.27;8.02;;;;;;;;;;5093444;28;20034;-60
2023/10/04 08:39:56;;;;;;;13.60;8.65;;;;;;;;;;5093164;28;20059;-61
2023/10/04 08:42:24;;;;;;;16.02;8.98;;;;;;;;;;5093161;28;20060;-60
2023/10/04 08:44:50;;;;;;;14.88;8.60;;;;;;;;;;5093375;28;20058;-63
2023/10/04 08:47:16;;;;;;;13.65;8.75;;;;;;;;;;5092901;28;20108;-57
2023/10/04 08:49:55;;;;;;;13.80;8.93;;;;;;;;;;5092586;28;20422;-57
2023/10/04 08:52:27;;;;;;;13.63;8.75;;;;;;;;;;5092531;28;20482;-64
2023/10/04 08:54:58;;;;;;;14.40;9.90;;;;;;;;;;5092673;28;20031;-61
2023/10/04 08:57:24;;;;;;;15.20;10.57;;;;;;;;;;5093102;28;20369;-62
2023/10/04 08:59:51;;;;;;;13.75;9.02;;;;;;;;;;5092509;28;20051;-56
2023/10/04 09:02:19;;;;;;;13.68;9.10;;;;;;;;;;5092509;28;20024;-62
2023/10/04 09:04:46;;;;;;;14.95;10.43;;;;;;;;;;5092498;28;20124;-62
2023/10/04 09:07:12;;;;;;;13.65;8.85;;;;;;;;;;5092161;28;20096;-63
2023/10/04 09:09:38;;;;;;;13.75;9.13;;;;;;;;;;5092311;28;20028;-63
2023/10/04 09:12:06;;;;;;;13.75;9.15;;;;;;;;;;5091721;28;20390;-59
2023/10/04 09:14:33;;;;;;;13.82;9.35;;;;;;;;;;5091469;28;20032;-63
2023/10/04 09:17:12;;;;;;;14.43;9.48;;;;;;;;;;5092517;28;20483;-62
2023/10/04 09:19:39;;;;;;;13.82;9.40;;;;;;;;;;5092158;28;20054;-64
2023/10/04 09:22:06;;;;;;;14.02;9.68;;;;;;;;;;5092687;28;20028;-62
2023/10/04 09:24:32;;;;;;;14.00;9.55;;;;;;;;;;5092609;28;20039;-57
2023/10/04 09:26:58;;;;;;;14.45;10.75;;;;;;;;;;5092210;28;20028;-62
2023/10/04 09:29:31;;;;;;;14.18;10.00;;;;;;;;;;5092559;28;20022;-62
2023/10/04 09:31:57;;;;;;;13.88;9.60;;;;;;;;;;5092059;28;20786;-61
2023/10/04 09:34:23;;;;;;;13.88;9.38;;;;;;;;;;5092038;28;20154;-61
2023/10/04 09:36:52;;;;;;;14.00;9.82;;;;;;;;;;5092238;28;20386;-63
2023/10/04 09:39:23;;;;;;;13.80;9.18;;;;;;;;;;5092181;28;20024;-62
2023/10/04 09:41:50;;;;;;;14.00;9.90;;;;;;;;;;5073543;28;20024;-63
2023/10/04 09:44:26;;;;;;;14.50;10.05;;;;;;;;;;5092003;28;20027;-60
2023/10/04 09:47:02;;;;;;;14.00;9.80;;;;;;;;;;5091605;28;20054;-54
2023/10/04 09:49:31;;;;;;;13.95;9.50;;;;;;;;;;5091994;28;20016;-61
2023/10/04 09:51:58;;;;;;;14.60;10.40;;;;;;;;;;5091827;28;20024;-59
2023/10/04 09:54:24;;;;;;;14.45;9.98;;;;;;;;;;5073586;28;20024;-61
2023/10/04 09:56:52;;;;;;;14.30;10.10;;;;;;;;;;5091438;28;20168;-60
2023/10/04 09:59:19;;;;;;;14.25;10.35;;;;;;;;;;5091481;28;20028;-58
2023/10/04 10:01:49;;;;;;;14.30;9.70;;;;;;;;;;5072283;28;20032;-63
2023/10/04 10:04:18;;;;;;;14.05;9.93;;;;;;;;;;5090818;28;20107;-60
2023/10/04 10:06:43;;;;;;;;;;;;;;;;;;5091355;28;20028;-58
2023/10/04 10:09:11;;;;;;;14.07;9.88;;;;;;;;;;5072732;28;20262;-62
2023/10/04 10:11:37;;;;;;;14.30;10.60;;;;;;;;;;5091360;28;20020;-59
2023/10/04 10:14:03;;;;;;;13.93;9.65;;;;;;;;;;5091360;28;20095;-61
2023/10/04 10:16:30;;;;;;;14.20;9.90;;;;;;;;;;5091132;28;20067;-58
2023/10/04 10:18:57;;;;;;;14.10;10.10;;;;;;;;;;5090702;28;20036;-62
2023/10/04 10:21:43;;;;;;;15.30;10.85;;;;;;;;;;5090224;28;20047;-60
2023/10/04 10:24:14;;;;;;;14.30;10.60;;;;;;;;;;5090701;28;20028;-59
2023/10/04 10:26:41;;;;;;;15.57;10.73;;;;;;;;;;5091231;28;20023;-56
2023/10/04 10:29:20;;;;;;;14.93;10.35;;;;;;;;;;5090968;28;20024;-64
2023/10/04 10:31:53;;;;;;;14.20;10.30;;;;;;;;;;5090683;28;20048;-64
2023/10/04 10:34:20;;;;;;;14.45;10.85;;;;;;;;;;5090829;28;20099;-64
2023/10/04 10:36:54;;;;;;;14.30;10.60;;;;;;;;;;5072105;28;20047;-65
2023/10/04 10:39:24;;;;;;;14.50;10.90;;;;;;;;;;5090384;28;20082;-66
2023/10/04 10:41:50;;;;;;;18.13;11.50;;;;;;;;;;5081665;28;20104;-63
2023/10/04 10:44:17;;;;;;;16.67;12.02;;;;;;;;;;5082653;28;20020;-65
2023/10/04 10:47:02;;;;;;;14.57;10.60;;;;;;;;;;5064556;28;20036;-66
2023/10/04 10:49:37;;;;;;;16.27;11.90;;;;;;;;;;5071421;28;20066;-66
2023/10/04 10:52:03;;;;;;;14.38;10.75;;;;;;;;;;5073654;28;20524;-65
2023/10/04 10:54:29;;;;;;;14.70;11.30;;;;;;;;;;5062417;28;20059;-65
2023/10/04 10:56:55;;;;;;;14.35;11.00;;;;;;;;;;5090173;28;20081;-69
2023/10/04 10:59:21;;;;;;;15.38;12.55;;;;;;;;;;5090302;28;20032;-66
2023/10/04 11:01:47;;;;;;;14.30;10.60;;;;;;;;;;5085475;28;20030;-68
2023/10/04 11:04:14;;;;;;;14.40;10.90;;;;;;;;;;5072051;28;20399;-68
2023/10/04 11:06:43;;;;;;;14.30;10.60;;;;;;;;;;5072218;28;20059;-68
2023/10/04 11:11:39;;;;;;;14.55;11.18;;;;;;;;;;5065067;28;19928;-53
2023/10/04 11:14:06;;;;;;;14.60;11.15;;;;;;;;;;5069896;28;20025;-54
2023/10/04 11:16:33;;;;;;;14.32;10.70;;;;;;;;;;5071135;28;20028;-55
2023/10/04 11:19:01;;;;;;;14.48;11.05;;;;;;;;;;5070362;28;20031;-56
2023/10/04 11:21:27;;;;;;;15.27;11.80;;;;;;;;;;5050688;28;20032;-56
2023/10/04 11:23:55;;;;;;;19.95;11.75;;;;;;;;;;5050447;28;20036;-56
2023/10/04 11:26:21;;;;;;;14.52;11.25;;;;;;;;;;5051169;28;20065;-55
2023/10/04 11:28:49;;;;;;;14.65;11.48;;;;;;;;;;5051133;28;20487;-56
2023/10/04 11:31:15;;;;;;;14.70;11.55;;;;;;;;;;5050975;28;20037;-56
2023/10/04 11:33:52;;;;;;;14.65;11.40;;;;;;;;;;5033115;28;20025;-57
2023/10/04 11:36:22;;;;;;;14.60;11.32;;;;;;;;;;5051230;28;20017;-56
2023/10/04 11:38:50;;;;;;;14.50;11.27;;;;;;;;;;5054950;28;20032;-57
2023/10/04 11:41:17;;;;;;;14.70;11.40;;;;;;;;;;5054926;28;20025;-53
2023/10/04 11:43:46;;;;;;;15.20;11.60;;;;;;;;;;5037545;28;20367;-57
2023/10/04 11:46:12;;;;;;;17.73;12.30;;;;;;;;;;5055056;28;20099;-57
2023/10/04 11:48:38;;;;;;;17.45;12.00;;;;;;;;;;5054933;28;20020;-53
2023/10/04 11:51:04;;;;;;;15.07;12.02;;;;;;;;;;5037104;28;20099;-56
2023/10/04 11:53:33;;;;;;;14.68;11.35;;;;;;;;;;5037011;28;20079;-58
2023/10/04 11:56:00;;;;;;;15.10;11.70;;;;;;;;;;5055082;28;20025;-58
2023/10/04 11:58:30;;;;;;;14.52;11.15;;;;;;;;;;5054816;28;20029;-54
2023/10/04 12:01:24;;;;;;;14.68;11.73;;;;;;;;;;5036601;28;20387;-58
2023/10/04 12:03:51;;;;;;;14.95;11.95;;;;;;;;;;5052320;28;20083;-56
2023/10/04 12:06:27;;;;;;;14.65;11.45;;;;;;;;;;5054687;28;20024;-53
2023/10/04 12:08:54;;;;;;;19.08;11.70;;;;;;;;;;5036679;28;20545;-58
2023/10/04 12:11:25;;;;;;;14.45;11.10;;;;;;;;;;5053975;28;20116;-56
2023/10/04 12:13:51;;;;;;;14.65;11.57;;;;;;;;;;5054471;28;20025;-55
2023/10/04 12:16:17;;;;;;;14.73;11.32;;;;;;;;;;5054469;28;20113;-58
2023/10/04 12:18:44;;;;;;;17.13;12.05;;;;;;;;;;5054051;28;20040;-58
2023/10/04 12:21:10;;;;;;;14.50;11.10;;;;;;;;;;5053997;28;20029;-57
2023/10/04 12:23:36;;;;;;;16.98;12.27;;;;;;;;;;5036629;28;20116;-55
2023/10/04 12:26:04;;;;;;;14.60;11.23;;;;;;;;;;5035993;28;20131;-55
2023/10/04 12:28:30;;;;;;;14.40;10.80;;;;;;;;;;5054247;28;20025;-53
2023/10/04 12:31:03;;;;;;;14.43;10.95;;;;;;;;;;5053606;28;20486;-56
2023/10/04 12:33:29;;;;;;;14.50;11.23;;;;;;;;;;5054405;28;20486;-51
2023/10/04 12:35:56;;;;;;;14.30;10.75;;;;;;;;;;5054031;28;20025;-57
2023/10/04 12:38:25;;;;;;;20.63;11.25;;;;;;;;;;5053819;28;20041;-56
2023/10/04 12:40:52;;;;;;;14.50;10.85;;;;;;;;;;5035447;28;20025;-57
2023/10/04 12:43:18;;;;;;;15.63;11.95;;;;;;;;;;5053420;28;20027;-57
2023/10/04 12:45:44;;;;;;;16.05;11.57;;;;;;;;;;5035181;28;20111;-56
2023/10/04 12:48:16;;;;;;;14.70;11.40;;;;;;;;;;5053154;28;20028;-56
2023/10/04 12:50:45;;;;;;;14.40;10.82;;;;;;;;;;5052973;28;20086;-56
2023/10/04 12:53:14;;;;;;;14.60;11.32;;;;;;;;;;5053383;28;20329;-55
2023/10/04 12:55:44;;;;;;;15.00;12.07;;;;;;;;;;5053358;28;20371;-53
2023/10/04 12:58:10;;;;;;;15.90;11.82;;;;;;;;;;5053017;28;20025;-60
2023/10/04 13:00:36;;;;;;;16.42;12.43;;;;;;;;;;5053037;28;20394;-57
2023/10/04 13:03:03;;;;;;;15.55;11.82;;;;;;;;;;5035340;28;20025;-54
2023/10/04 13:05:32;;;;;;;15.75;11.15;;;;;;;;;;5053244;28;20032;-58
2023/10/04 13:07:57;;;;;;;;;;;;;;;;;;5053724;28;20025;-54
2023/10/04 13:10:24;;;;;;;14.40;10.90;;;;;;;;;;5035085;28;20008;-54
2023/10/04 13:12:50;;;;;;;14.48;11.00;;;;;;;;;;5052859;28;20029;-54
2023/10/04 13:15:17;;;;;;;14.70;11.20;;;;;;;;;;5052988;28;20025;-55
2023/10/04 13:17:43;;;;;;;14.40;10.82;;;;;;;;;;5053926;28;20120;-55
2023/10/04 13:20:18;;;;;;;14.35;10.63;;;;;;;;;;5053428;28;20546;-57
2023/10/04 13:22:45;;;;;;;14.40;10.90;;;;;;;;;;5034789;28;20025;-57
2023/10/04 13:25:11;;;;;;;14.70;10.70;;;;;;;;;;5052755;28;20029;-58
2023/10/04 13:27:37;;;;;;;15.95;11.70;;;;;;;;;;5052719;28;20391;-55
2023/10/04 13:30:04;;;;;;;14.20;10.30;;;;;;;;;;5052765;28;20108;-54
2023/10/04 13:32:31;;;;;;;14.27;10.50;;;;;;;;;;5052609;28;20025;-54
2023/10/04 13:34:59;;;;;;;14.20;10.35;;;;;;;;;;5034720;28;20116;-58
2023/10/04 13:37:25;;;;;;;15.98;11.55;;;;;;;;;;5034699;28;20502;-57
2023/10/04 13:39:51;;;;;;;15.13;10.50;;;;;;;;;;5052478;28;20505;-58
2023/10/04 13:42:17;;;;;;;14.00;9.95;;;;;;;;;;5052863;28;20071;-58
2023/10/04 13:44:44;;;;;;;14.30;10.55;;;;;;;;;;5052582;28;20078;-54
2023/10/04 13:47:11;;;;;;;14.30;10.65;;;;;;;;;;5033713;28;20029;-59
2023/10/04 13:49:38;;;;;;;14.32;10.57;;;;;;;;;;5033292;28;20010;-56
2023/10/04 13:52:04;;;;;;;13.90;9.70;;;;;;;;;;5051719;28;20028;-57
2023/10/04 13:54:31;;;;;;;14.85;10.45;;;;;;;;;;5051704;28;20479;-56
2023/10/04 13:56:59;;;;;;;14.20;10.27;;;;;;;;;;5033489;28;20483;-59
2023/10/04 13:59:25;;;;;;;14.60;11.23;;;;;;;;;;5050971;28;20025;-55
2023/10/04 14:01:51;;;;;;;14.88;10.25;;;;;;;;;;5032834;28;20029;-57
2023/10/04 14:04:18;;;;;;;14.30;10.55;;;;;;;;;;5052261;28;20052;-53
2023/10/04 14:06:45;;;;;;;14.25;10.40;;;;;;;;;;5051999;28;20071;-59
2023/10/04 14:09:21;;;;;;;14.35;10.60;;;;;;;;;;5052344;28;20036;-58
2023/10/04 14:11:47;;;;;;;14.50;11.02;;;;;;;;;;5052029;28;20033;-54
2023/10/04 14:14:14;;;;;;;14.30;10.68;;;;;;;;;;5052065;28;20099;-53
2023/10/04 14:16:45;;;;;;;14.50;11.05;;;;;;;;;;5034318;28;20021;-58
2023/10/04 14:19:11;;;;;;;14.50;10.50;;;;;;;;;;5052270;28;20029;-54
2023/10/04 14:21:40;;;;;;;14.35;10.85;;;;;;;;;;5051816;28;20520;-55
2023/10/04 14:24:07;;;;;;;31.20;11.50;;;;;;;;;;5051761;28;20028;-57
2023/10/04 14:26:33;;;;;;;15.38;11.13;;;;;;;;;;5051666;28;20035;-53
2023/10/04 14:29:00;;;;;;;14.50;10.80;;;;;;;;;;5049837;28;20027;-58
2023/10/04 14:31:28;;;;;;;18.00;10.98;;;;;;;;;;5049149;28;20021;-58
2023/10/04 14:33:55;;;;;;;16.58;11.25;;;;;;;;;;5049074;28;20055;-59